sensor_id;sensor_type;location;lat;lon;timestamp;P1;durP1;ratioP1;P2;durP2;ratioP2
28547;SDS011;68292;49.600;8.746;2023-03-23T00:40:30;1.88;;;1.67;;
28547;SDS011;68292;49.600;8.746;2023-03-23T00:43:01;2.40;;;1.92;;
28547;SDS011;68292;49.600;8.746;2023-03-23T00:45:30;1.95;;;1.80;;
28547;SDS011;68292;49.600;8.746;2023-03-23T00:48:00;2.17;;;1.70;;
28547;SDS011;68292;49.600;8.746;2023-03-23T00:50:30;2.90;;;1.67;;
28547;SDS011;68292;49.600;8.746;2023-03-23T00:52:58;2.05;;;1.60;;
28547;SDS011;68292;49.600;8.746;2023-03-23T00:55:25;2.10;;;1.92;;
28547;SDS011;68292;49.600;8.746;2023-03-23T00:57:54;2.55;;;1.95;;
28547;SDS011;68292;49.600;8.746;2023-03-23T01:00:22;2.30;;;2.03;;
28547;SDS011;68292;49.600;8.746;2023-03-23T01:02:50;1.80;;;1.70;;
28547;SDS011;68292;49.600;8.746;2023-03-23T01:05:19;1.77;;;1.67;;
28547;SDS011;68292;49.600;8.746;2023-03-23T01:07:46;2.03;;;1.85;;
28547;SDS011;68292;49.600;8.746;2023-03-23T01:10:14;1.85;;;1.70;;
28547;SDS011;68292;49.600;8.746;2023-03-23T01:12:43;2.03;;;1.83;;
28547;SDS011;68292;49.600;8.746;2023-03-23T01:15:14;1.88;;;1.77;;
28547;SDS011;68292;49.600;8.746;2023-03-23T01:17:44;1.90;;;1.60;;
28547;SDS011;68292;49.600;8.746;2023-03-23T01:20:12;1.65;;;1.35;;
28547;SDS011;68292;49.600;8.746;2023-03-23T01:22:42;1.55;;;1.45;;
28547;SDS011;68292;49.600;8.746;2023-03-23T01:25:10;2.45;;;1.65;;
28547;SDS011;68292;49.600;8.746;2023-03-23T01:27:39;1.58;;;1.48;;
28547;SDS011;68292;49.600;8.746;2023-03-23T01:30:08;1.50;;;1.40;;
28547;SDS011;68292;49.600;8.746;2023-03-23T01:32:39;3.65;;;1.52;;
28547;SDS011;68292;49.600;8.746;2023-03-23T01:35:07;1.98;;;1.75;;
28547;SDS011;68292;49.600;8.746;2023-03-23T01:37:36;2.10;;;1.70;;
28547;SDS011;68292;49.600;8.746;2023-03-23T01:40:04;1.85;;;1.60;;
28547;SDS011;68292;49.600;8.746;2023-03-23T01:42:34;1.63;;;1.40;;
28547;SDS011;68292;49.600;8.746;2023-03-23T01:48:01;1.55;;;1.45;;
28547;SDS011;68292;49.600;8.746;2023-03-23T01:50:36;2.60;;;1.30;;
28547;SDS011;68292;49.600;8.746;2023-03-23T01:53:13;1.60;;;1.50;;
28547;SDS011;68292;49.600;8.746;2023-03-23T01:55:42;1.70;;;1.60;;
28547;SDS011;68292;49.600;8.746;2023-03-23T01:58:16;1.83;;;1.50;;
28547;SDS011;68292;49.600;8.746;2023-03-23T02:00:46;1.73;;;1.45;;
28547;SDS011;68292;49.600;8.746;2023-03-23T02:03:15;1.65;;;1.55;;
28547;SDS011;68292;49.600;8.746;2023-03-23T02:05:44;1.63;;;1.52;;
28547;SDS011;68292;49.600;8.746;2023-03-23T02:08:18;1.35;;;1.25;;
28547;SDS011;68292;49.600;8.746;2023-03-23T02:10:46;1.80;;;1.50;;
28547;SDS011;68292;49.600;8.746;2023-03-23T02:13:15;1.98;;;1.55;;
28547;SDS011;68292;49.600;8.746;2023-03-23T02:15:45;1.60;;;1.50;;
28547;SDS011;68292;49.600;8.746;2023-03-23T02:18:27;3.05;;;1.48;;
28547;SDS011;68292;49.600;8.746;2023-03-23T02:21:39;1.50;;;1.40;;
28547;SDS011;68292;49.600;8.746;2023-03-23T02:28:00;1.60;;;1.50;;
28547;SDS011;68292;49.600;8.746;2023-03-23T02:30:49;1.88;;;1.55;;
28547;SDS011;68292;49.600;8.746;2023-03-23T02:33:36;1.60;;;1.50;;
28547;SDS011;68292;49.600;8.746;2023-03-23T02:36:16;1.55;;;1.40;;
28547;SDS011;68292;49.600;8.746;2023-03-23T02:38:55;3.75;;;1.70;;
28547;SDS011;68292;49.600;8.746;2023-03-23T02:41:30;4.03;;;1.45;;
28547;SDS011;68292;49.600;8.746;2023-03-23T02:44:03;2.22;;;1.75;;
28547;SDS011;68292;49.600;8.746;2023-03-23T02:46:35;1.75;;;1.60;;
28547;SDS011;68292;49.600;8.746;2023-03-23T02:49:08;1.48;;;1.38;;
28547;SDS011;68292;49.600;8.746;2023-03-23T02:51:39;1.60;;;1.50;;
28547;SDS011;68292;49.600;8.746;2023-03-23T02:54:10;8.18;;;1.90;;
28547;SDS011;68292;49.600;8.746;2023-03-23T02:56:39;1.85;;;1.70;;
28547;SDS011;68292;49.600;8.746;2023-03-23T02:59:15;1.60;;;1.50;;
28547;SDS011;68292;49.600;8.746;2023-03-23T03:01:57;1.80;;;1.70;;
28547;SDS011;68292;49.600;8.746;2023-03-23T03:04:30;1.80;;;1.40;;
28547;SDS011;68292;49.600;8.746;2023-03-23T03:07:14;2.05;;;1.50;;
28547;SDS011;68292;49.600;8.746;2023-03-23T03:09:58;1.65;;;1.55;;
28547;SDS011;68292;49.600;8.746;2023-03-23T03:12:32;1.92;;;1.75;;
28547;SDS011;68292;49.600;8.746;2023-03-23T03:15:11;1.73;;;1.48;;
28547;SDS011;68292;49.600;8.746;2023-03-23T03:17:51;1.60;;;1.50;;
28547;SDS011;68292;49.600;8.746;2023-03-23T03:20:27;1.67;;;1.40;;
28547;SDS011;68292;49.600;8.746;2023-03-23T03:22:56;2.22;;;1.77;;
28547;SDS011;68292;49.600;8.746;2023-03-23T03:25:26;1.70;;;1.60;;
28547;SDS011;68292;49.600;8.746;2023-03-23T03:27:56;1.70;;;1.60;;
28547;SDS011;68292;49.600;8.746;2023-03-23T03:30:38;2.00;;;1.80;;
28547;SDS011;68292;49.600;8.746;2023-03-23T03:33:10;2.10;;;1.63;;
28547;SDS011;68292;49.600;8.746;2023-03-23T03:35:40;2.28;;;1.70;;
28547;SDS011;68292;49.600;8.746;2023-03-23T03:38:10;1.70;;;1.60;;
28547;SDS011;68292;49.600;8.746;2023-03-23T03:40:39;1.83;;;1.70;;
28547;SDS011;68292;49.600;8.746;2023-03-23T03:43:06;3.47;;;1.90;;
28547;SDS011;68292;49.600;8.746;2023-03-23T03:45:34;1.77;;;1.67;;
28547;SDS011;68292;49.600;8.746;2023-03-23T03:48:02;2.17;;;1.98;;
28547;SDS011;68292;49.600;8.746;2023-03-23T03:50:31;2.03;;;1.92;;
28547;SDS011;68292;49.600;8.746;2023-03-23T03:53:00;1.80;;;1.70;;
28547;SDS011;68292;49.600;8.746;2023-03-23T03:55:28;1.85;;;1.75;;
28547;SDS011;68292;49.600;8.746;2023-03-23T03:58:02;1.75;;;1.60;;
28547;SDS011;68292;49.600;8.746;2023-03-23T04:00:49;1.67;;;1.58;;
28547;SDS011;68292;49.600;8.746;2023-03-23T04:03:23;1.63;;;1.52;;
28547;SDS011;68292;49.600;8.746;2023-03-23T04:06:15;2.25;;;2.08;;
28547;SDS011;68292;49.600;8.746;2023-03-23T04:08:44;2.05;;;1.85;;
28547;SDS011;68292;49.600;8.746;2023-03-23T04:11:13;2.38;;;1.98;;
28547;SDS011;68292;49.600;8.746;2023-03-23T04:13:41;2.40;;;1.67;;
28547;SDS011;68292;49.600;8.746;2023-03-23T04:16:15;2.95;;;1.73;;
28547;SDS011;68292;49.600;8.746;2023-03-23T04:18:44;2.35;;;1.92;;
28547;SDS011;68292;49.600;8.746;2023-03-23T04:21:13;6.88;;;1.70;;
28547;SDS011;68292;49.600;8.746;2023-03-23T04:23:46;1.88;;;1.67;;
28547;SDS011;68292;49.600;8.746;2023-03-23T04:26:14;1.83;;;1.67;;
28547;SDS011;68292;49.600;8.746;2023-03-23T04:28:46;5.72;;;1.90;;
28547;SDS011;68292;49.600;8.746;2023-03-23T04:31:34;1.98;;;1.75;;
28547;SDS011;68292;49.600;8.746;2023-03-23T04:34:25;2.20;;;2.00;;
28547;SDS011;68292;49.600;8.746;2023-03-23T04:36:53;3.20;;;2.10;;
28547;SDS011;68292;49.600;8.746;2023-03-23T04:39:27;1.90;;;1.80;;
28547;SDS011;68292;49.600;8.746;2023-03-23T04:42:00;2.88;;;1.95;;
28547;SDS011;68292;49.600;8.746;2023-03-23T04:44:36;1.60;;;1.50;;
28547;SDS011;68292;49.600;8.746;2023-03-23T04:47:10;2.05;;;1.70;;
28547;SDS011;68292;49.600;8.746;2023-03-23T04:49:45;2.28;;;1.75;;
28547;SDS011;68292;49.600;8.746;2023-03-23T04:52:22;2.65;;;2.13;;
28547;SDS011;68292;49.600;8.746;2023-03-23T04:54:56;1.58;;;1.48;;
28547;SDS011;68292;49.600;8.746;2023-03-23T04:57:26;2.00;;;1.80;;
28547;SDS011;68292;49.600;8.746;2023-03-23T05:00:32;1.90;;;1.80;;
28547;SDS011;68292;49.600;8.746;2023-03-23T05:03:02;3.58;;;1.85;;
28547;SDS011;68292;49.600;8.746;2023-03-23T05:05:33;2.28;;;1.85;;
28547;SDS011;68292;49.600;8.746;2023-03-23T05:08:05;1.85;;;1.75;;
28547;SDS011;68292;49.600;8.746;2023-03-23T05:10:40;2.40;;;1.83;;
28547;SDS011;68292;49.600;8.746;2023-03-23T05:13:13;2.08;;;1.50;;
28547;SDS011;68292;49.600;8.746;2023-03-23T05:15:45;3.80;;;1.80;;
28547;SDS011;68292;49.600;8.746;2023-03-23T05:18:13;1.98;;;1.77;;
28547;SDS011;68292;49.600;8.746;2023-03-23T05:20:41;2.00;;;1.90;;
28547;SDS011;68292;49.600;8.746;2023-03-23T05:23:15;2.08;;;1.80;;
28547;SDS011;68292;49.600;8.746;2023-03-23T05:25:53;2.83;;;2.15;;
28547;SDS011;68292;49.600;8.746;2023-03-23T05:28:23;2.17;;;1.98;;
28547;SDS011;68292;49.600;8.746;2023-03-23T05:31:01;2.08;;;1.90;;
28547;SDS011;68292;49.600;8.746;2023-03-23T05:33:32;2.40;;;1.95;;
28547;SDS011;68292;49.600;8.746;2023-03-23T05:36:07;2.40;;;2.20;;
28547;SDS011;68292;49.600;8.746;2023-03-23T05:38:57;4.50;;;1.80;;
28547;SDS011;68292;49.600;8.746;2023-03-23T05:41:38;1.95;;;1.80;;
28547;SDS011;68292;49.600;8.746;2023-03-23T05:44:06;3.83;;;2.20;;
28547;SDS011;68292;49.600;8.746;2023-03-23T05:46:44;2.37;;;2.17;;
28547;SDS011;68292;49.600;8.746;2023-03-23T05:49:12;2.28;;;1.90;;
28547;SDS011;68292;49.600;8.746;2023-03-23T05:51:42;3.08;;;1.80;;
28547;SDS011;68292;49.600;8.746;2023-03-23T05:54:12;1.70;;;1.60;;
28547;SDS011;68292;49.600;8.746;2023-03-23T05:56:43;2.20;;;2.00;;
28547;SDS011;68292;49.600;8.746;2023-03-23T05:59:19;2.22;;;2.03;;
28547;SDS011;68292;49.600;8.746;2023-03-23T06:01:50;2.50;;;2.30;;
28547;SDS011;68292;49.600;8.746;2023-03-23T06:04:20;1.85;;;1.70;;
28547;SDS011;68292;49.600;8.746;2023-03-23T06:07:25;2.05;;;1.65;;
28547;SDS011;68292;49.600;8.746;2023-03-23T06:09:59;2.00;;;1.80;;
28547;SDS011;68292;49.600;8.746;2023-03-23T06:12:49;2.90;;;1.95;;
28547;SDS011;68292;49.600;8.746;2023-03-23T06:15:37;1.88;;;1.77;;
28547;SDS011;68292;49.600;8.746;2023-03-23T06:18:19;1.97;;;1.77;;
28547;SDS011;68292;49.600;8.746;2023-03-23T06:21:03;3.42;;;1.88;;
28547;SDS011;68292;49.600;8.746;2023-03-23T06:23:50;2.10;;;1.90;;
28547;SDS011;68292;49.600;8.746;2023-03-23T06:26:20;2.07;;;1.87;;
28547;SDS011;68292;49.600;8.746;2023-03-23T06:28:57;2.70;;;2.08;;
28547;SDS011;68292;49.600;8.746;2023-03-23T06:31:27;2.63;;;2.30;;
28547;SDS011;68292;49.600;8.746;2023-03-23T06:33:56;1.80;;;1.70;;
28547;SDS011;68292;49.600;8.746;2023-03-23T06:36:24;2.00;;;1.80;;
28547;SDS011;68292;49.600;8.746;2023-03-23T06:39:18;2.22;;;2.03;;
28547;SDS011;68292;49.600;8.746;2023-03-23T06:41:58;3.65;;;2.00;;
28547;SDS011;68292;49.600;8.746;2023-03-23T06:44:31;1.98;;;1.88;;
28547;SDS011;68292;49.600;8.746;2023-03-23T06:46:58;2.28;;;2.17;;
28547;SDS011;68292;49.600;8.746;2023-03-23T06:49:34;2.85;;;2.00;;
28547;SDS011;68292;49.600;8.746;2023-03-23T06:52:23;2.33;;;2.13;;
28547;SDS011;68292;49.600;8.746;2023-03-23T06:54:53;3.03;;;2.50;;
28547;SDS011;68292;49.600;8.746;2023-03-23T06:57:21;2.20;;;1.90;;
28547;SDS011;68292;49.600;8.746;2023-03-23T06:59:52;4.20;;;2.00;;
28547;SDS011;68292;49.600;8.746;2023-03-23T07:02:23;2.80;;;2.60;;
28547;SDS011;68292;49.600;8.746;2023-03-23T07:04:52;2.10;;;1.98;;
28547;SDS011;68292;49.600;8.746;2023-03-23T07:07:23;2.63;;;2.40;;
28547;SDS011;68292;49.600;8.746;2023-03-23T07:10:07;2.30;;;2.10;;
28547;SDS011;68292;49.600;8.746;2023-03-23T07:12:37;2.40;;;2.20;;
28547;SDS011;68292;49.600;8.746;2023-03-23T07:15:09;2.22;;;2.03;;
28547;SDS011;68292;49.600;8.746;2023-03-23T07:17:40;2.30;;;2.10;;
28547;SDS011;68292;49.600;8.746;2023-03-23T07:20:18;2.28;;;2.08;;
28547;SDS011;68292;49.600;8.746;2023-03-23T07:22:46;2.25;;;1.98;;
28547;SDS011;68292;49.600;8.746;2023-03-23T07:25:35;2.22;;;2.03;;
28547;SDS011;68292;49.600;8.746;2023-03-23T07:28:03;2.88;;;2.60;;
28547;SDS011;68292;49.600;8.746;2023-03-23T07:30:33;2.78;;;2.55;;
28547;SDS011;68292;49.600;8.746;2023-03-23T07:33:04;3.55;;;2.30;;
28547;SDS011;68292;49.600;8.746;2023-03-23T07:35:32;3.40;;;2.38;;
28547;SDS011;68292;49.600;8.746;2023-03-23T07:38:07;3.42;;;2.00;;
28547;SDS011;68292;49.600;8.746;2023-03-23T07:40:36;3.88;;;2.28;;
28547;SDS011;68292;49.600;8.746;2023-03-23T07:43:12;2.30;;;2.00;;
28547;SDS011;68292;49.600;8.746;2023-03-23T07:46:20;2.28;;;2.08;;
28547;SDS011;68292;49.600;8.746;2023-03-23T07:49:10;2.58;;;2.38;;
28547;SDS011;68292;49.600;8.746;2023-03-23T07:51:43;3.47;;;1.92;;
28547;SDS011;68292;49.600;8.746;2023-03-23T07:54:14;2.60;;;2.15;;
28547;SDS011;68292;49.600;8.746;2023-03-23T07:56:56;2.25;;;1.63;;
28547;SDS011;68292;49.600;8.746;2023-03-23T07:59:26;2.90;;;2.20;;
28547;SDS011;68292;49.600;8.746;2023-03-23T08:01:58;2.23;;;2.03;;
28547;SDS011;68292;49.600;8.746;2023-03-23T08:04:52;1.73;;;1.63;;
28547;SDS011;68292;49.600;8.746;2023-03-23T08:07:31;1.60;;;1.50;;
28547;SDS011;68292;49.600;8.746;2023-03-23T08:10:32;2.55;;;1.50;;
28547;SDS011;68292;49.600;8.746;2023-03-23T08:13:10;1.77;;;1.48;;
28547;SDS011;68292;49.600;8.746;2023-03-23T08:15:56;1.65;;;1.52;;
28547;SDS011;68292;49.600;8.746;2023-03-23T08:18:44;1.53;;;1.43;;
28547;SDS011;68292;49.600;8.746;2023-03-23T08:21:31;1.40;;;1.20;;
28547;SDS011;68292;49.600;8.746;2023-03-23T08:24:09;1.50;;;1.35;;
28547;SDS011;68292;49.600;8.746;2023-03-23T08:26:58;1.48;;;1.33;;
28547;SDS011;68292;49.600;8.746;2023-03-23T08:29:53;1.70;;;1.60;;
28547;SDS011;68292;49.600;8.746;2023-03-23T08:32:40;1.50;;;1.40;;
28547;SDS011;68292;49.600;8.746;2023-03-23T08:35:29;1.67;;;1.38;;
28547;SDS011;68292;49.600;8.746;2023-03-23T08:38:26;1.60;;;1.50;;
28547;SDS011;68292;49.600;8.746;2023-03-23T08:41:20;1.50;;;1.40;;
28547;SDS011;68292;49.600;8.746;2023-03-23T08:44:16;1.70;;;1.30;;
28547;SDS011;68292;49.600;8.746;2023-03-23T08:46:55;1.42;;;1.33;;
28547;SDS011;68292;49.600;8.746;2023-03-23T08:49:41;1.50;;;1.40;;
28547;SDS011;68292;49.600;8.746;2023-03-23T08:52:38;1.70;;;1.60;;
28547;SDS011;68292;49.600;8.746;2023-03-23T08:55:15;1.55;;;1.45;;
28547;SDS011;68292;49.600;8.746;2023-03-23T08:58:07;1.30;;;1.20;;
28547;SDS011;68292;49.600;8.746;2023-03-23T09:00:53;1.60;;;1.50;;
28547;SDS011;68292;49.600;8.746;2023-03-23T09:03:43;1.85;;;1.52;;
28547;SDS011;68292;49.600;8.746;2023-03-23T09:06:32;1.77;;;1.65;;
28547;SDS011;68292;49.600;8.746;2023-03-23T09:09:01;1.52;;;1.38;;
28547;SDS011;68292;49.600;8.746;2023-03-23T09:11:32;1.60;;;1.50;;
28547;SDS011;68292;49.600;8.746;2023-03-23T09:14:01;2.20;;;1.63;;
28547;SDS011;68292;49.600;8.746;2023-03-23T09:16:30;1.70;;;1.60;;
28547;SDS011;68292;49.600;8.746;2023-03-23T09:18:58;2.63;;;1.58;;
28547;SDS011;68292;49.600;8.746;2023-03-23T09:21:26;2.57;;;1.90;;
28547;SDS011;68292;49.600;8.746;2023-03-23T09:23:55;2.17;;;1.67;;
28547;SDS011;68292;49.600;8.746;2023-03-23T09:26:25;2.30;;;1.95;;
28547;SDS011;68292;49.600;8.746;2023-03-23T09:28:53;1.90;;;1.70;;
28547;SDS011;68292;49.600;8.746;2023-03-23T09:31:22;2.05;;;1.88;;
28547;SDS011;68292;49.600;8.746;2023-03-23T09:33:52;2.13;;;1.50;;
28547;SDS011;68292;49.600;8.746;2023-03-23T09:36:22;1.92;;;1.48;;
28547;SDS011;68292;49.600;8.746;2023-03-23T09:38:52;1.60;;;1.50;;
28547;SDS011;68292;49.600;8.746;2023-03-23T09:41:31;3.03;;;1.60;;
28547;SDS011;68292;49.600;8.746;2023-03-23T09:44:36;1.70;;;1.60;;
28547;SDS011;68292;49.600;8.746;2023-03-23T09:47:23;2.95;;;1.80;;
28547;SDS011;68292;49.600;8.746;2023-03-23T09:50:01;1.50;;;1.40;;
28547;SDS011;68292;49.600;8.746;2023-03-23T09:52:37;2.25;;;1.77;;
28547;SDS011;68292;49.600;8.746;2023-03-23T09:55:11;1.90;;;1.80;;
28547;SDS011;68292;49.600;8.746;2023-03-23T09:57:44;2.20;;;1.77;;
28547;SDS011;68292;49.600;8.746;2023-03-23T10:00:19;1.77;;;1.67;;
28547;SDS011;68292;49.600;8.746;2023-03-23T10:02:52;1.42;;;1.33;;
28547;SDS011;68292;49.600;8.746;2023-03-23T10:05:32;2.35;;;1.67;;
28547;SDS011;68292;49.600;8.746;2023-03-23T10:08:08;2.20;;;1.95;;
28547;SDS011;68292;49.600;8.746;2023-03-23T10:10:44;2.10;;;1.70;;
28547;SDS011;68292;49.600;8.746;2023-03-23T10:13:23;3.58;;;1.58;;
28547;SDS011;68292;49.600;8.746;2023-03-23T10:16:04;1.20;;;1.10;;
28547;SDS011;68292;49.600;8.746;2023-03-23T10:18:37;1.00;;;1.00;;
28547;SDS011;68292;49.600;8.746;2023-03-23T10:21:11;1.38;;;1.25;;
28547;SDS011;68292;49.600;8.746;2023-03-23T10:23:48;1.45;;;1.20;;
28547;SDS011;68292;49.600;8.746;2023-03-23T10:26:28;1.20;;;1.10;;
28547;SDS011;68292;49.600;8.746;2023-03-23T10:29:11;1.20;;;1.10;;
28547;SDS011;68292;49.600;8.746;2023-03-23T10:31:46;1.45;;;1.35;;
28547;SDS011;68292;49.600;8.746;2023-03-23T10:34:19;1.48;;;1.25;;
28547;SDS011;68292;49.600;8.746;2023-03-23T10:36:54;1.35;;;1.25;;
28547;SDS011;68292;49.600;8.746;2023-03-23T10:39:29;1.35;;;1.25;;
28547;SDS011;68292;49.600;8.746;2023-03-23T10:42:21;1.85;;;1.50;;
28547;SDS011;68292;49.600;8.746;2023-03-23T10:44:53;1.50;;;1.40;;
28547;SDS011;68292;49.600;8.746;2023-03-23T10:47:22;2.83;;;2.00;;
28547;SDS011;68292;49.600;8.746;2023-03-23T10:49:51;1.50;;;1.40;;
28547;SDS011;68292;49.600;8.746;2023-03-23T10:52:25;1.70;;;1.60;;
28547;SDS011;68292;49.600;8.746;2023-03-23T10:55:00;1.92;;;1.77;;
28547;SDS011;68292;49.600;8.746;2023-03-23T10:57:33;1.83;;;1.50;;
28547;SDS011;68292;49.600;8.746;2023-03-23T11:00:05;3.08;;;1.70;;
28547;SDS011;68292;49.600;8.746;2023-03-23T11:02:44;1.80;;;1.70;;
28547;SDS011;68292;49.600;8.746;2023-03-23T11:05:16;1.98;;;1.77;;
28547;SDS011;68292;49.600;8.746;2023-03-23T11:07:49;1.80;;;1.53;;
28547;SDS011;68292;49.600;8.746;2023-03-23T11:10:21;1.98;;;1.50;;
28547;SDS011;68292;49.600;8.746;2023-03-23T11:12:51;2.30;;;1.63;;
28547;SDS011;68292;49.600;8.746;2023-03-23T11:15:23;2.17;;;1.42;;
28547;SDS011;68292;49.600;8.746;2023-03-23T11:17:58;1.63;;;1.53;;
28547;SDS011;68292;49.600;8.746;2023-03-23T11:20:29;1.50;;;1.40;;
28547;SDS011;68292;49.600;8.746;2023-03-23T11:23:07;1.33;;;1.20;;
28547;SDS011;68292;49.600;8.746;2023-03-23T11:25:54;2.85;;;1.40;;
28547;SDS011;68292;49.600;8.746;2023-03-23T11:28:26;1.80;;;1.40;;
28547;SDS011;68292;49.600;8.746;2023-03-23T11:31:00;1.35;;;1.27;;
28547;SDS011;68292;49.600;8.746;2023-03-23T11:33:31;1.50;;;1.40;;
28547;SDS011;68292;49.600;8.746;2023-03-23T11:36:06;1.92;;;1.42;;
28547;SDS011;68292;49.600;8.746;2023-03-23T11:38:35;1.63;;;1.38;;
28547;SDS011;68292;49.600;8.746;2023-03-23T11:41:08;1.65;;;1.55;;
28547;SDS011;68292;49.600;8.746;2023-03-23T11:43:44;1.83;;;1.40;;
28547;SDS011;68292;49.600;8.746;2023-03-23T11:46:20;2.05;;;1.50;;
28547;SDS011;68292;49.600;8.746;2023-03-23T11:48:59;1.58;;;1.48;;
28547;SDS011;68292;49.600;8.746;2023-03-23T11:51:30;1.40;;;1.30;;
28547;SDS011;68292;49.600;8.746;2023-03-23T11:54:05;1.65;;;1.55;;
28547;SDS011;68292;49.600;8.746;2023-03-23T11:56:42;1.27;;;1.17;;
28547;SDS011;68292;49.600;8.746;2023-03-23T11:59:13;1.23;;;1.17;;
28547;SDS011;68292;49.600;8.746;2023-03-23T12:01:51;1.50;;;1.40;;
28547;SDS011;68292;49.600;8.746;2023-03-23T12:04:30;1.13;;;1.13;;
28547;SDS011;68292;49.600;8.746;2023-03-23T12:10:08;1.00;;;1.00;;
28547;SDS011;68292;49.600;8.746;2023-03-23T12:12:50;2.15;;;2.00;;
28547;SDS011;68292;49.600;8.746;2023-03-23T12:15:34;6.03;;;4.88;;
28547;SDS011;68292;49.600;8.746;2023-03-23T12:18:13;5.05;;;3.90;;
28547;SDS011;68292;49.600;8.746;2023-03-23T12:20:57;7.03;;;5.82;;
28547;SDS011;68292;49.600;8.746;2023-03-23T12:23:36;3.10;;;2.80;;
28547;SDS011;68292;49.600;8.746;2023-03-23T12:26:21;2.58;;;2.00;;
28547;SDS011;68292;49.600;8.746;2023-03-23T12:28:57;2.33;;;1.88;;
28547;SDS011;68292;49.600;8.746;2023-03-23T12:31:39;3.25;;;3.05;;
28547;SDS011;68292;49.600;8.746;2023-03-23T12:34:20;3.72;;;2.80;;
28547;SDS011;68292;49.600;8.746;2023-03-23T12:37:02;3.07;;;2.77;;
28547;SDS011;68292;49.600;8.746;2023-03-23T12:40:00;2.75;;;2.30;;
28547;SDS011;68292;49.600;8.746;2023-03-23T12:42:50;9.32;;;8.48;;
28547;SDS011;68292;49.600;8.746;2023-03-23T12:45:25;3.88;;;3.58;;
28547;SDS011;68292;49.600;8.746;2023-03-23T12:48:23;2.80;;;2.50;;
28547;SDS011;68292;49.600;8.746;2023-03-23T12:51:06;2.33;;;2.13;;
28547;SDS011;68292;49.600;8.746;2023-03-23T12:53:43;1.70;;;1.60;;
28547;SDS011;68292;49.600;8.746;2023-03-23T12:56:21;1.60;;;1.50;;
28547;SDS011;68292;49.600;8.746;2023-03-23T12:58:57;1.75;;;1.52;;
28547;SDS011;68292;49.600;8.746;2023-03-23T13:01:32;1.67;;;1.58;;
28547;SDS011;68292;49.600;8.746;2023-03-23T13:04:05;2.45;;;1.50;;
28547;SDS011;68292;49.600;8.746;2023-03-23T13:06:40;1.88;;;1.77;;
28547;SDS011;68292;49.600;8.746;2023-03-23T13:09:10;1.40;;;1.30;;
28547;SDS011;68292;49.600;8.746;2023-03-23T13:11:43;1.38;;;1.30;;
28547;SDS011;68292;49.600;8.746;2023-03-23T13:14:18;2.97;;;1.48;;
28547;SDS011;68292;49.600;8.746;2023-03-23T13:17:01;1.67;;;1.58;;
28547;SDS011;68292;49.600;8.746;2023-03-23T13:19:44;1.50;;;1.40;;
28547;SDS011;68292;49.600;8.746;2023-03-23T13:22:35;1.50;;;1.40;;
28547;SDS011;68292;49.600;8.746;2023-03-23T13:25:10;1.60;;;1.50;;
28547;SDS011;68292;49.600;8.746;2023-03-23T13:27:55;1.38;;;1.27;;
28547;SDS011;68292;49.600;8.746;2023-03-23T13:30:24;1.85;;;1.75;;
28547;SDS011;68292;49.600;8.746;2023-03-23T13:33:00;1.70;;;1.60;;
28547;SDS011;68292;49.600;8.746;2023-03-23T13:35:33;2.85;;;1.90;;
28547;SDS011;68292;49.600;8.746;2023-03-23T13:38:12;2.55;;;2.30;;
28547;SDS011;68292;49.600;8.746;2023-03-23T13:40:46;1.70;;;1.60;;
28547;SDS011;68292;49.600;8.746;2023-03-23T13:43:24;1.95;;;1.85;;
28547;SDS011;68292;49.600;8.746;2023-03-23T13:45:54;1.83;;;1.70;;
28547;SDS011;68292;49.600;8.746;2023-03-23T13:48:39;1.98;;;1.73;;
28547;SDS011;68292;49.600;8.746;2023-03-23T13:54:06;2.63;;;2.10;;
28547;SDS011;68292;49.600;8.746;2023-03-23T13:56:53;2.53;;;2.13;;
28547;SDS011;68292;49.600;8.746;2023-03-23T13:59:31;2.80;;;2.05;;
28547;SDS011;68292;49.600;8.746;2023-03-23T14:02:26;3.78;;;2.35;;
28547;SDS011;68292;49.600;8.746;2023-03-23T14:05:08;3.28;;;2.55;;
28547;SDS011;68292;49.600;8.746;2023-03-23T14:07:59;2.45;;;2.13;;
28547;SDS011;68292;49.600;8.746;2023-03-23T14:10:35;2.65;;;2.42;;
28547;SDS011;68292;49.600;8.746;2023-03-23T14:13:09;2.95;;;2.10;;
28547;SDS011;68292;49.600;8.746;2023-03-23T14:15:45;2.15;;;1.95;;
28547;SDS011;68292;49.600;8.746;2023-03-23T14:18:26;2.25;;;2.03;;
28547;SDS011;68292;49.600;8.746;2023-03-23T14:20:59;3.50;;;1.92;;
28547;SDS011;68292;49.600;8.746;2023-03-23T14:23:27;2.47;;;2.28;;
28547;SDS011;68292;49.600;8.746;2023-03-23T14:26:02;3.22;;;2.00;;
28547;SDS011;68292;49.600;8.746;2023-03-23T14:28:40;2.30;;;2.10;;
28547;SDS011;68292;49.600;8.746;2023-03-23T14:31:14;2.00;;;1.90;;
28547;SDS011;68292;49.600;8.746;2023-03-23T14:33:45;2.35;;;2.00;;
28547;SDS011;68292;49.600;8.746;2023-03-23T14:36:14;3.85;;;2.40;;
28547;SDS011;68292;49.600;8.746;2023-03-23T14:38:47;2.35;;;2.15;;
28547;SDS011;68292;49.600;8.746;2023-03-23T14:41:22;2.55;;;2.22;;
28547;SDS011;68292;49.600;8.746;2023-03-23T14:43:50;2.63;;;2.33;;
28547;SDS011;68292;49.600;8.746;2023-03-23T14:46:18;1.92;;;1.83;;
28547;SDS011;68292;49.600;8.746;2023-03-23T14:48:46;2.35;;;2.15;;
28547;SDS011;68292;49.600;8.746;2023-03-23T14:51:17;3.75;;;1.98;;
28547;SDS011;68292;49.600;8.746;2023-03-23T14:53:46;2.35;;;1.70;;
28547;SDS011;68292;49.600;8.746;2023-03-23T14:56:18;4.07;;;1.88;;
28547;SDS011;68292;49.600;8.746;2023-03-23T14:58:50;1.90;;;1.75;;
28547;SDS011;68292;49.600;8.746;2023-03-23T15:01:19;2.47;;;2.28;;
28547;SDS011;68292;49.600;8.746;2023-03-23T15:03:52;2.33;;;1.75;;
28547;SDS011;68292;49.600;8.746;2023-03-23T15:06:25;2.33;;;2.13;;
28547;SDS011;68292;49.600;8.746;2023-03-23T15:08:56;2.83;;;2.20;;
28547;SDS011;68292;49.600;8.746;2023-03-23T15:11:29;2.75;;;2.28;;
28547;SDS011;68292;49.600;8.746;2023-03-23T15:14:02;1.95;;;1.73;;
28547;SDS011;68292;49.600;8.746;2023-03-23T15:16:44;2.10;;;1.88;;
28547;SDS011;68292;49.600;8.746;2023-03-23T15:19:16;1.70;;;1.60;;
28547;SDS011;68292;49.600;8.746;2023-03-23T15:21:47;1.58;;;1.48;;
28547;SDS011;68292;49.600;8.746;2023-03-23T15:24:25;5.18;;;2.33;;
28547;SDS011;68292;49.600;8.746;2023-03-23T15:27:03;5.00;;;4.15;;
28547;SDS011;68292;49.600;8.746;2023-03-23T15:29:51;8.57;;;6.40;;
28547;SDS011;68292;49.600;8.746;2023-03-23T15:32:21;18.65;;;12.43;;
28547;SDS011;68292;49.600;8.746;2023-03-23T15:34:52;9.32;;;6.90;;
28547;SDS011;68292;49.600;8.746;2023-03-23T15:37:21;6.63;;;5.88;;
28547;SDS011;68292;49.600;8.746;2023-03-23T15:39:53;5.05;;;4.65;;
28547;SDS011;68292;49.600;8.746;2023-03-23T15:42:25;9.27;;;7.40;;
28547;SDS011;68292;49.600;8.746;2023-03-23T15:44:57;5.75;;;5.15;;
28547;SDS011;68292;49.600;8.746;2023-03-23T15:47:36;3.90;;;3.47;;
28547;SDS011;68292;49.600;8.746;2023-03-23T15:50:12;3.60;;;3.30;;
28547;SDS011;68292;49.600;8.746;2023-03-23T15:52:43;5.10;;;4.00;;
28547;SDS011;68292;49.600;8.746;2023-03-23T15:55:18;3.20;;;2.43;;
28547;SDS011;68292;49.600;8.746;2023-03-23T15:57:49;4.13;;;2.80;;
28547;SDS011;68292;49.600;8.746;2023-03-23T16:00:20;3.88;;;3.00;;
28547;SDS011;68292;49.600;8.746;2023-03-23T16:02:52;2.60;;;2.40;;
28547;SDS011;68292;49.600;8.746;2023-03-23T16:05:24;4.63;;;3.47;;
28547;SDS011;68292;49.600;8.746;2023-03-23T16:07:53;3.40;;;3.10;;
28547;SDS011;68292;49.600;8.746;2023-03-23T16:10:23;4.57;;;4.05;;
28547;SDS011;68292;49.600;8.746;2023-03-23T16:12:53;5.70;;;3.88;;
28547;SDS011;68292;49.600;8.746;2023-03-23T16:15:23;4.68;;;3.60;;
28547;SDS011;68292;49.600;8.746;2023-03-23T16:17:51;3.10;;;2.80;;
28547;SDS011;68292;49.600;8.746;2023-03-23T16:20:21;3.33;;;3.03;;
28547;SDS011;68292;49.600;8.746;2023-03-23T16:22:59;3.53;;;3.22;;
28547;SDS011;68292;49.600;8.746;2023-03-23T16:25:32;3.35;;;2.85;;
28547;SDS011;68292;49.600;8.746;2023-03-23T16:28:01;3.83;;;3.45;;
28547;SDS011;68292;49.600;8.746;2023-03-23T16:30:33;4.63;;;4.00;;